sensor_id;sensor_type;location;lat;lon;timestamp;pressure;altitude;pressure_sealevel;temperature
20733;BMP180;10527;52.124;5.196;2023-06-14T00:01:31;101478.00;;;32.80
20733;BMP180;10527;52.124;5.196;2023-06-14T00:04:05;101489.00;;;32.80
20733;BMP180;10527;52.124;5.196;2023-06-14T00:06:32;101487.00;;;32.80
20733;BMP180;10527;52.124;5.196;2023-06-14T00:09:00;101481.00;;;32.80
20733;BMP180;10527;52.124;5.196;2023-06-14T00:11:27;101479.00;;;32.70
20733;BMP180;10527;52.124;5.196;2023-06-14T00:13:54;101486.00;;;32.70
20733;BMP180;10527;52.124;5.196;2023-06-14T00:16:36;101485.00;;;32.70
20733;BMP180;10527;52.124;5.196;2023-06-14T00:19:03;101487.00;;;32.70
20733;BMP180;10527;52.124;5.196;2023-06-14T00:21:31;101478.00;;;32.60
20733;BMP180;10527;52.124;5.196;2023-06-14T00:23:59;101478.00;;;32.60
20733;BMP180;10527;52.124;5.196;2023-06-14T00:26:26;101481.00;;;32.60
20733;BMP180;10527;52.124;5.196;2023-06-14T00:28:56;101481.00;;;32.60
20733;BMP180;10527;52.124;5.196;2023-06-14T00:31:23;101473.00;;;32.50
20733;BMP180;10527;52.124;5.196;2023-06-14T00:33:50;101485.00;;;32.50
20733;BMP180;10527;52.124;5.196;2023-06-14T00:36:17;101484.00;;;32.50
20733;BMP180;10527;52.124;5.196;2023-06-14T00:38:43;101483.00;;;32.50
20733;BMP180;10527;52.124;5.196;2023-06-14T00:41:10;101478.00;;;32.40
20733;BMP180;10527;52.124;5.196;2023-06-14T00:43:37;101487.00;;;32.40
20733;BMP180;10527;52.124;5.196;2023-06-14T00:46:05;101482.00;;;32.30
20733;BMP180;10527;52.124;5.196;2023-06-14T00:48:33;101477.00;;;32.30
20733;BMP180;10527;52.124;5.196;2023-06-14T00:51:02;101481.00;;;32.30
20733;BMP180;10527;52.124;5.196;2023-06-14T00:53:31;101484.00;;;32.30
20733;BMP180;10527;52.124;5.196;2023-06-14T00:56:01;101480.00;;;32.20
20733;BMP180;10527;52.124;5.196;2023-06-14T00:58:28;101485.00;;;32.20
20733;BMP180;10527;52.124;5.196;2023-06-14T01:00:57;101488.00;;;32.20
20733;BMP180;10527;52.124;5.196;2023-06-14T01:03:24;101480.00;;;32.10
20733;BMP180;10527;52.124;5.196;2023-06-14T01:06:09;101479.00;;;32.10
20733;BMP180;10527;52.124;5.196;2023-06-14T01:08:51;101481.00;;;32.10
20733;BMP180;10527;52.124;5.196;2023-06-14T01:11:32;101483.00;;;32.00
20733;BMP180;10527;52.124;5.196;2023-06-14T01:14:02;101479.00;;;32.00
20733;BMP180;10527;52.124;5.196;2023-06-14T01:16:31;101477.00;;;31.90
20733;BMP180;10527;52.124;5.196;2023-06-14T01:18:58;101472.00;;;31.90
20733;BMP180;10527;52.124;5.196;2023-06-14T01:21:26;101477.00;;;31.80
20733;BMP180;10527;52.124;5.196;2023-06-14T01:23:55;101473.00;;;31.80
20733;BMP180;10527;52.124;5.196;2023-06-14T01:26:23;101480.00;;;31.80
20733;BMP180;10527;52.124;5.196;2023-06-14T01:28:51;101476.00;;;31.70
20733;BMP180;10527;52.124;5.196;2023-06-14T01:31:21;101469.00;;;31.70
20733;BMP180;10527;52.124;5.196;2023-06-14T01:33:51;101475.00;;;31.70
20733;BMP180;10527;52.124;5.196;2023-06-14T01:36:19;101463.00;;;31.70
20733;BMP180;10527;52.124;5.196;2023-06-14T01:38:49;101473.00;;;31.60
20733;BMP180;10527;52.124;5.196;2023-06-14T01:41:20;101478.00;;;31.60
20733;BMP180;10527;52.124;5.196;2023-06-14T01:43:49;101481.00;;;31.60
20733;BMP180;10527;52.124;5.196;2023-06-14T01:46:17;101486.00;;;31.50
20733;BMP180;10527;52.124;5.196;2023-06-14T01:48:44;101483.00;;;31.50
20733;BMP180;10527;52.124;5.196;2023-06-14T01:51:11;101476.00;;;31.40
20733;BMP180;10527;52.124;5.196;2023-06-14T01:53:38;101474.00;;;31.40
20733;BMP180;10527;52.124;5.196;2023-06-14T01:56:06;101474.00;;;31.30
20733;BMP180;10527;52.124;5.196;2023-06-14T01:58:33;101480.00;;;31.30
20733;BMP180;10527;52.124;5.196;2023-06-14T02:01:02;101470.00;;;31.30
20733;BMP180;10527;52.124;5.196;2023-06-14T02:03:29;101482.00;;;31.20
20733;BMP180;10527;52.124;5.196;2023-06-14T02:05:56;101473.00;;;31.20
20733;BMP180;10527;52.124;5.196;2023-06-14T02:08:23;101473.00;;;31.20
20733;BMP180;10527;52.124;5.196;2023-06-14T02:10:51;101474.00;;;31.20
20733;BMP180;10527;52.124;5.196;2023-06-14T02:13:18;101471.00;;;31.20
20733;BMP180;10527;52.124;5.196;2023-06-14T02:15:45;101470.00;;;31.10
20733;BMP180;10527;52.124;5.196;2023-06-14T02:18:13;101463.00;;;31.10
20733;BMP180;10527;52.124;5.196;2023-06-14T02:20:40;101462.00;;;31.10
20733;BMP180;10527;52.124;5.196;2023-06-14T02:23:07;101462.00;;;31.10
20733;BMP180;10527;52.124;5.196;2023-06-14T02:25:36;101456.00;;;31.00
20733;BMP180;10527;52.124;5.196;2023-06-14T02:28:03;101460.00;;;31.00
20733;BMP180;10527;52.124;5.196;2023-06-14T02:30:30;101470.00;;;31.00
20733;BMP180;10527;52.124;5.196;2023-06-14T02:32:57;101467.00;;;31.00
20733;BMP180;10527;52.124;5.196;2023-06-14T02:35:25;101474.00;;;30.90
20733;BMP180;10527;52.124;5.196;2023-06-14T02:37:53;101476.00;;;30.90
20733;BMP180;10527;52.124;5.196;2023-06-14T02:40:20;101473.00;;;30.90
20733;BMP180;10527;52.124;5.196;2023-06-14T02:42:47;101475.00;;;30.80
20733;BMP180;10527;52.124;5.196;2023-06-14T02:45:14;101476.00;;;30.80
20733;BMP180;10527;52.124;5.196;2023-06-14T02:47:41;101474.00;;;30.80
20733;BMP180;10527;52.124;5.196;2023-06-14T02:50:09;101473.00;;;30.80
20733;BMP180;10527;52.124;5.196;2023-06-14T02:52:36;101486.00;;;30.70
20733;BMP180;10527;52.124;5.196;2023-06-14T02:55:04;101472.00;;;30.70
20733;BMP180;10527;52.124;5.196;2023-06-14T02:57:31;101485.00;;;30.70
20733;BMP180;10527;52.124;5.196;2023-06-14T02:59:58;101488.00;;;30.60
20733;BMP180;10527;52.124;5.196;2023-06-14T03:02:25;101485.00;;;30.60
20733;BMP180;10527;52.124;5.196;2023-06-14T03:04:52;101487.00;;;30.50
20733;BMP180;10527;52.124;5.196;2023-06-14T03:07:18;101490.00;;;30.50
20733;BMP180;10527;52.124;5.196;2023-06-14T03:09:48;101494.00;;;30.50
20733;BMP180;10527;52.124;5.196;2023-06-14T03:12:15;101486.00;;;30.40
20733;BMP180;10527;52.124;5.196;2023-06-14T03:14:42;101500.00;;;30.40
20733;BMP180;10527;52.124;5.196;2023-06-14T03:17:12;101501.00;;;30.40
20733;BMP180;10527;52.124;5.196;2023-06-14T03:19:39;101501.00;;;30.30
20733;BMP180;10527;52.124;5.196;2023-06-14T03:22:07;101505.00;;;30.30
20733;BMP180;10527;52.124;5.196;2023-06-14T03:24:34;101506.00;;;30.30
20733;BMP180;10527;52.124;5.196;2023-06-14T03:27:04;101506.00;;;30.30
20733;BMP180;10527;52.124;5.196;2023-06-14T03:29:31;101507.00;;;30.30
20733;BMP180;10527;52.124;5.196;2023-06-14T03:32:02;101509.00;;;30.20
20733;BMP180;10527;52.124;5.196;2023-06-14T03:34:29;101507.00;;;30.20
20733;BMP180;10527;52.124;5.196;2023-06-14T03:36:57;101514.00;;;30.10
20733;BMP180;10527;52.124;5.196;2023-06-14T03:39:37;101508.00;;;30.10
20733;BMP180;10527;52.124;5.196;2023-06-14T03:42:06;101519.00;;;30.10
20733;BMP180;10527;52.124;5.196;2023-06-14T03:44:35;101519.00;;;30.00
20733;BMP180;10527;52.124;5.196;2023-06-14T03:47:03;101520.00;;;30.00
20733;BMP180;10527;52.124;5.196;2023-06-14T03:49:30;101521.00;;;30.00
20733;BMP180;10527;52.124;5.196;2023-06-14T03:51:57;101520.00;;;30.00
20733;BMP180;10527;52.124;5.196;2023-06-14T03:54:24;101515.00;;;29.90
20733;BMP180;10527;52.124;5.196;2023-06-14T03:56:53;101524.00;;;29.90
20733;BMP180;10527;52.124;5.196;2023-06-14T03:59:20;101525.00;;;29.90
20733;BMP180;10527;52.124;5.196;2023-06-14T04:01:48;101535.00;;;29.80
20733;BMP180;10527;52.124;5.196;2023-06-14T04:04:15;101531.00;;;29.80
20733;BMP180;10527;52.124;5.196;2023-06-14T04:06:43;101528.00;;;29.80
20733;BMP180;10527;52.124;5.196;2023-06-14T04:09:10;101535.00;;;29.80
20733;BMP180;10527;52.124;5.196;2023-06-14T04:11:37;101543.00;;;29.70
20733;BMP180;10527;52.124;5.196;2023-06-14T04:14:05;101541.00;;;29.70
20733;BMP180;10527;52.124;5.196;2023-06-14T04:16:32;101538.00;;;29.70
20733;BMP180;10527;52.124;5.196;2023-06-14T04:18:59;101540.00;;;29.60
20733;BMP180;10527;52.124;5.196;2023-06-14T04:21:26;101541.00;;;29.60
20733;BMP180;10527;52.124;5.196;2023-06-14T04:23:56;101542.00;;;29.60
20733;BMP180;10527;52.124;5.196;2023-06-14T04:26:23;101546.00;;;29.50
20733;BMP180;10527;52.124;5.196;2023-06-14T04:28:57;101549.00;;;29.50
20733;BMP180;10527;52.124;5.196;2023-06-14T04:31:29;101545.00;;;29.50
20733;BMP180;10527;52.124;5.196;2023-06-14T04:33:57;101545.00;;;29.40
20733;BMP180;10527;52.124;5.196;2023-06-14T04:36:23;101547.00;;;29.40
20733;BMP180;10527;52.124;5.196;2023-06-14T04:38:51;101554.00;;;29.40
20733;BMP180;10527;52.124;5.196;2023-06-14T04:41:22;101548.00;;;29.40
20733;BMP180;10527;52.124;5.196;2023-06-14T04:43:55;101552.00;;;29.40
20733;BMP180;10527;52.124;5.196;2023-06-14T04:46:23;101558.00;;;29.40
20733;BMP180;10527;52.124;5.196;2023-06-14T04:48:50;101553.00;;;29.30
20733;BMP180;10527;52.124;5.196;2023-06-14T04:51:17;101555.00;;;29.30
20733;BMP180;10527;52.124;5.196;2023-06-14T04:53:48;101558.00;;;29.30
20733;BMP180;10527;52.124;5.196;2023-06-14T04:56:16;101550.00;;;29.30
20733;BMP180;10527;52.124;5.196;2023-06-14T04:58:43;101553.00;;;29.30
20733;BMP180;10527;52.124;5.196;2023-06-14T05:01:11;101557.00;;;29.30
20733;BMP180;10527;52.124;5.196;2023-06-14T05:03:37;101562.00;;;29.30
20733;BMP180;10527;52.124;5.196;2023-06-14T05:06:04;101555.00;;;29.30
20733;BMP180;10527;52.124;5.196;2023-06-14T05:08:33;101561.00;;;29.30
20733;BMP180;10527;52.124;5.196;2023-06-14T05:10:59;101557.00;;;29.30
20733;BMP180;10527;52.124;5.196;2023-06-14T05:13:26;101560.00;;;29.30
20733;BMP180;10527;52.124;5.196;2023-06-14T05:15:54;101566.00;;;29.30
20733;BMP180;10527;52.124;5.196;2023-06-14T05:18:21;101567.00;;;29.30
20733;BMP180;10527;52.124;5.196;2023-06-14T05:20:48;101559.00;;;29.30
20733;BMP180;10527;52.124;5.196;2023-06-14T05:23:15;101570.00;;;29.30
20733;BMP180;10527;52.124;5.196;2023-06-14T05:25:46;101568.00;;;29.30
20733;BMP180;10527;52.124;5.196;2023-06-14T05:28:13;101564.00;;;29.30
20733;BMP180;10527;52.124;5.196;2023-06-14T05:30:40;101573.00;;;29.30
20733;BMP180;10527;52.124;5.196;2023-06-14T05:33:07;101571.00;;;29.30
20733;BMP180;10527;52.124;5.196;2023-06-14T05:35:37;101570.00;;;29.30
20733;BMP180;10527;52.124;5.196;2023-06-14T05:38:04;101570.00;;;29.30
20733;BMP180;10527;52.124;5.196;2023-06-14T05:40:33;101566.00;;;29.30
20733;BMP180;10527;52.124;5.196;2023-06-14T05:43:03;101571.00;;;29.30
20733;BMP180;10527;52.124;5.196;2023-06-14T05:45:31;101575.00;;;29.30
20733;BMP180;10527;52.124;5.196;2023-06-14T05:47:57;101579.00;;;29.40
20733;BMP180;10527;52.124;5.196;2023-06-14T05:50:24;101582.00;;;29.40
20733;BMP180;10527;52.124;5.196;2023-06-14T05:52:53;101578.00;;;29.40
20733;BMP180;10527;52.124;5.196;2023-06-14T05:55:22;101584.00;;;29.40
20733;BMP180;10527;52.124;5.196;2023-06-14T05:57:49;101588.00;;;29.50
20733;BMP180;10527;52.124;5.196;2023-06-14T06:00:17;101587.00;;;29.50
20733;BMP180;10527;52.124;5.196;2023-06-14T06:02:45;101591.00;;;29.50
20733;BMP180;10527;52.124;5.196;2023-06-14T06:05:13;101590.00;;;29.50
20733;BMP180;10527;52.124;5.196;2023-06-14T06:07:41;101597.00;;;29.50
20733;BMP180;10527;52.124;5.196;2023-06-14T06:10:09;101588.00;;;29.60
20733;BMP180;10527;52.124;5.196;2023-06-14T06:12:36;101593.00;;;29.60
20733;BMP180;10527;52.124;5.196;2023-06-14T06:15:03;101593.00;;;29.60
20733;BMP180;10527;52.124;5.196;2023-06-14T06:17:30;101595.00;;;29.70
20733;BMP180;10527;52.124;5.196;2023-06-14T06:20:17;101592.00;;;29.70
20733;BMP180;10527;52.124;5.196;2023-06-14T06:22:44;101590.00;;;29.70
20733;BMP180;10527;52.124;5.196;2023-06-14T06:25:11;101596.00;;;29.70
20733;BMP180;10527;52.124;5.196;2023-06-14T06:27:37;101593.00;;;29.80
20733;BMP180;10527;52.124;5.196;2023-06-14T06:30:06;101603.00;;;29.80
20733;BMP180;10527;52.124;5.196;2023-06-14T06:32:33;101598.00;;;29.80
20733;BMP180;10527;52.124;5.196;2023-06-14T06:35:00;101595.00;;;29.90
20733;BMP180;10527;52.124;5.196;2023-06-14T06:37:27;101595.00;;;29.90
20733;BMP180;10527;52.124;5.196;2023-06-14T06:39:54;101602.00;;;29.90
20733;BMP180;10527;52.124;5.196;2023-06-14T06:42:21;101604.00;;;30.00
20733;BMP180;10527;52.124;5.196;2023-06-14T06:44:48;101607.00;;;30.00
20733;BMP180;10527;52.124;5.196;2023-06-14T06:47:14;101614.00;;;30.00
20733;BMP180;10527;52.124;5.196;2023-06-14T06:49:41;101629.00;;;30.10
20733;BMP180;10527;52.124;5.196;2023-06-14T06:52:08;101623.00;;;30.10
20733;BMP180;10527;52.124;5.196;2023-06-14T06:54:35;101632.00;;;30.20
20733;BMP180;10527;52.124;5.196;2023-06-14T06:57:02;101626.00;;;30.20
20733;BMP180;10527;52.124;5.196;2023-06-14T06:59:29;101628.00;;;30.20
20733;BMP180;10527;52.124;5.196;2023-06-14T07:01:58;101631.00;;;30.30
20733;BMP180;10527;52.124;5.196;2023-06-14T07:04:25;101635.00;;;30.30
20733;BMP180;10527;52.124;5.196;2023-06-14T07:06:52;101645.00;;;30.40
20733;BMP180;10527;52.124;5.196;2023-06-14T07:09:19;101642.00;;;30.40
20733;BMP180;10527;52.124;5.196;2023-06-14T07:11:47;101635.00;;;30.40
20733;BMP180;10527;52.124;5.196;2023-06-14T07:14:14;101645.00;;;30.50
20733;BMP180;10527;52.124;5.196;2023-06-14T07:16:41;101642.00;;;30.50
20733;BMP180;10527;52.124;5.196;2023-06-14T07:19:10;101639.00;;;30.60
20733;BMP180;10527;52.124;5.196;2023-06-14T07:21:37;101638.00;;;30.60
20733;BMP180;10527;52.124;5.196;2023-06-14T07:24:14;101649.00;;;30.70
20733;BMP180;10527;52.124;5.196;2023-06-14T07:26:41;101637.00;;;30.70
20733;BMP180;10527;52.124;5.196;2023-06-14T07:29:07;101649.00;;;30.80
20733;BMP180;10527;52.124;5.196;2023-06-14T07:31:34;101652.00;;;30.80
20733;BMP180;10527;52.124;5.196;2023-06-14T07:34:05;101653.00;;;30.90
20733;BMP180;10527;52.124;5.196;2023-06-14T07:36:32;101651.00;;;31.00
20733;BMP180;10527;52.124;5.196;2023-06-14T07:38:59;101648.00;;;31.20
20733;BMP180;10527;52.124;5.196;2023-06-14T07:41:29;101662.00;;;31.50
20733;BMP180;10527;52.124;5.196;2023-06-14T07:43:56;101666.00;;;31.80
20733;BMP180;10527;52.124;5.196;2023-06-14T07:46:23;101669.00;;;32.10
20733;BMP180;10527;52.124;5.196;2023-06-14T07:48:49;101668.00;;;32.50
20733;BMP180;10527;52.124;5.196;2023-06-14T07:51:16;101667.00;;;32.80
20733;BMP180;10527;52.124;5.196;2023-06-14T07:53:43;101674.00;;;33.20
20733;BMP180;10527;52.124;5.196;2023-06-14T07:56:10;101668.00;;;33.50
20733;BMP180;10527;52.124;5.196;2023-06-14T07:58:37;101677.00;;;33.80
20733;BMP180;10527;52.124;5.196;2023-06-14T08:01:04;101677.00;;;34.10
20733;BMP180;10527;52.124;5.196;2023-06-14T08:03:33;101678.00;;;34.40
20733;BMP180;10527;52.124;5.196;2023-06-14T08:06:00;101674.00;;;34.70
20733;BMP180;10527;52.124;5.196;2023-06-14T08:08:27;101677.00;;;35.00
20733;BMP180;10527;52.124;5.196;2023-06-14T08:10:54;101679.00;;;35.20
20733;BMP180;10527;52.124;5.196;2023-06-14T08:13:21;101681.00;;;35.40
20733;BMP180;10527;52.124;5.196;2023-06-14T08:15:48;101691.00;;;35.60
20733;BMP180;10527;52.124;5.196;2023-06-14T08:18:15;101685.00;;;35.80
20733;BMP180;10527;52.124;5.196;2023-06-14T08:20:42;101683.00;;;36.00
20733;BMP180;10527;52.124;5.196;2023-06-14T08:23:10;101683.00;;;36.20
20733;BMP180;10527;52.124;5.196;2023-06-14T08:25:38;101689.00;;;36.30
20733;BMP180;10527;52.124;5.196;2023-06-14T08:28:04;101686.00;;;36.40
20733;BMP180;10527;52.124;5.196;2023-06-14T08:30:31;101675.00;;;36.50
20733;BMP180;10527;52.124;5.196;2023-06-14T08:32:58;101688.00;;;36.60
20733;BMP180;10527;52.124;5.196;2023-06-14T08:35:42;101684.00;;;36.70
20733;BMP180;10527;52.124;5.196;2023-06-14T08:38:10;101686.00;;;36.70
20733;BMP180;10527;52.124;5.196;2023-06-14T08:40:41;101677.00;;;36.80
20733;BMP180;10527;52.124;5.196;2023-06-14T08:43:09;101674.00;;;36.80
20733;BMP180;10527;52.124;5.196;2023-06-14T08:45:37;101675.00;;;36.80
20733;BMP180;10527;52.124;5.196;2023-06-14T08:48:07;101689.00;;;36.80
20733;BMP180;10527;52.124;5.196;2023-06-14T08:50:39;101678.00;;;36.90
20733;BMP180;10527;52.124;5.196;2023-06-14T08:53:11;101683.00;;;36.90
20733;BMP180;10527;52.124;5.196;2023-06-14T08:55:46;101689.00;;;36.90
20733;BMP180;10527;52.124;5.196;2023-06-14T08:58:14;101681.00;;;36.90
20733;BMP180;10527;52.124;5.196;2023-06-14T09:00:42;101683.00;;;37.00
20733;BMP180;10527;52.124;5.196;2023-06-14T09:03:11;101682.00;;;37.00
20733;BMP180;10527;52.124;5.196;2023-06-14T09:05:40;101689.00;;;37.00
20733;BMP180;10527;52.124;5.196;2023-06-14T09:08:07;101689.00;;;37.00
20733;BMP180;10527;52.124;5.196;2023-06-14T09:10:35;101684.00;;;37.10
20733;BMP180;10527;52.124;5.196;2023-06-14T09:13:05;101687.00;;;37.10
20733;BMP180;10527;52.124;5.196;2023-06-14T09:15:33;101691.00;;;37.10
20733;BMP180;10527;52.124;5.196;2023-06-14T09:18:03;101690.00;;;37.10
20733;BMP180;10527;52.124;5.196;2023-06-14T09:20:31;101689.00;;;37.10
20733;BMP180;10527;52.124;5.196;2023-06-14T09:22:58;101695.00;;;37.10
20733;BMP180;10527;52.124;5.196;2023-06-14T09:25:25;101695.00;;;37.00
20733;BMP180;10527;52.124;5.196;2023-06-14T09:28:07;101691.00;;;37.00
20733;BMP180;10527;52.124;5.196;2023-06-14T09:30:37;101700.00;;;37.00
20733;BMP180;10527;52.124;5.196;2023-06-14T09:33:04;101694.00;;;37.00
20733;BMP180;10527;52.124;5.196;2023-06-14T09:35:32;101691.00;;;37.00
20733;BMP180;10527;52.124;5.196;2023-06-14T09:37:59;101692.00;;;37.00
20733;BMP180;10527;52.124;5.196;2023-06-14T09:40:27;101697.00;;;37.00
20733;BMP180;10527;52.124;5.196;2023-06-14T09:42:54;101698.00;;;37.10
20733;BMP180;10527;52.124;5.196;2023-06-14T09:45:28;101689.00;;;37.10
20733;BMP180;10527;52.124;5.196;2023-06-14T09:47:58;101691.00;;;37.20
20733;BMP180;10527;52.124;5.196;2023-06-14T09:50:28;101688.00;;;37.20
20733;BMP180;10527;52.124;5.196;2023-06-14T09:53:10;101681.00;;;37.30
20733;BMP180;10527;52.124;5.196;2023-06-14T09:55:41;101686.00;;;37.30
20733;BMP180;10527;52.124;5.196;2023-06-14T09:58:10;101695.00;;;37.30
20733;BMP180;10527;52.124;5.196;2023-06-14T10:00:39;101695.00;;;37.40
20733;BMP180;10527;52.124;5.196;2023-06-14T10:03:25;101694.00;;;37.40
20733;BMP180;10527;52.124;5.196;2023-06-14T10:06:06;101700.00;;;37.40
20733;BMP180;10527;52.124;5.196;2023-06-14T10:08:36;101703.00;;;37.40
20733;BMP180;10527;52.124;5.196;2023-06-14T10:11:04;101697.00;;;37.50
20733;BMP180;10527;52.124;5.196;2023-06-14T10:13:32;101686.00;;;37.50
20733;BMP180;10527;52.124;5.196;2023-06-14T10:16:18;101699.00;;;37.60
20733;BMP180;10527;52.124;5.196;2023-06-14T10:19:19;101698.00;;;37.60
20733;BMP180;10527;52.124;5.196;2023-06-14T10:22:02;101692.00;;;37.60
20733;BMP180;10527;52.124;5.196;2023-06-14T10:24:44;101695.00;;;37.70
20733;BMP180;10527;52.124;5.196;2023-06-14T10:27:14;101696.00;;;37.70
20733;BMP180;10527;52.124;5.196;2023-06-14T10:32:21;101694.00;;;37.70
20733;BMP180;10527;52.124;5.196;2023-06-14T10:35:05;101683.00;;;37.80
20733;BMP180;10527;52.124;5.196;2023-06-14T10:37:33;101681.00;;;37.70
20733;BMP180;10527;52.124;5.196;2023-06-14T10:40:00;101699.00;;;37.80
20733;BMP180;10527;52.124;5.196;2023-06-14T10:42:32;101684.00;;;37.80
20733;BMP180;10527;52.124;5.196;2023-06-14T10:45:01;101696.00;;;37.80
20733;BMP180;10527;52.124;5.196;2023-06-14T10:47:34;101692.00;;;37.90
20733;BMP180;10527;52.124;5.196;2023-06-14T10:50:07;101694.00;;;37.90
20733;BMP180;10527;52.124;5.196;2023-06-14T10:52:42;101687.00;;;37.90
20733;BMP180;10527;52.124;5.196;2023-06-14T10:55:17;101685.00;;;38.00
20733;BMP180;10527;52.124;5.196;2023-06-14T10:57:50;101692.00;;;38.00
20733;BMP180;10527;52.124;5.196;2023-06-14T11:00:22;101686.00;;;38.00
20733;BMP180;10527;52.124;5.196;2023-06-14T11:05:56;101688.00;;;38.00
20733;BMP180;10527;52.124;5.196;2023-06-14T11:11:32;101682.00;;;38.10
20733;BMP180;10527;52.124;5.196;2023-06-14T11:14:02;101687.00;;;38.10
20733;BMP180;10527;52.124;5.196;2023-06-14T11:16:30;101698.00;;;38.10
20733;BMP180;10527;52.124;5.196;2023-06-14T11:19:01;101685.00;;;38.20
20733;BMP180;10527;52.124;5.196;2023-06-14T11:21:32;101682.00;;;38.20
20733;BMP180;10527;52.124;5.196;2023-06-14T11:24:00;101674.00;;;38.20
20733;BMP180;10527;52.124;5.196;2023-06-14T11:26:29;101686.00;;;38.30
20733;BMP180;10527;52.124;5.196;2023-06-14T11:28:58;101686.00;;;38.30
20733;BMP180;10527;52.124;5.196;2023-06-14T11:31:27;101690.00;;;38.40
20733;BMP180;10527;52.124;5.196;2023-06-14T11:34:00;101671.00;;;38.40
20733;BMP180;10527;52.124;5.196;2023-06-14T11:36:29;101677.00;;;38.50
20733;BMP180;10527;52.124;5.196;2023-06-14T11:39:04;101678.00;;;38.50
20733;BMP180;10527;52.124;5.196;2023-06-14T11:41:45;101672.00;;;38.50
20733;BMP180;10527;52.124;5.196;2023-06-14T11:44:12;101671.00;;;38.50
20733;BMP180;10527;52.124;5.196;2023-06-14T11:46:39;101678.00;;;38.60
20733;BMP180;10527;52.124;5.196;2023-06-14T11:49:07;101681.00;;;38.60
20733;BMP180;10527;52.124;5.196;2023-06-14T11:51:36;101670.00;;;38.60
20733;BMP180;10527;52.124;5.196;2023-06-14T11:54:06;101674.00;;;38.60
20733;BMP180;10527;52.124;5.196;2023-06-14T11:56:33;101667.00;;;38.60
20733;BMP180;10527;52.124;5.196;2023-06-14T11:59:02;101671.00;;;38.70
20733;BMP180;10527;52.124;5.196;2023-06-14T12:01:31;101675.00;;;38.70
20733;BMP180;10527;52.124;5.196;2023-06-14T12:03:59;101682.00;;;38.70
20733;BMP180;10527;52.124;5.196;2023-06-14T12:06:28;101680.00;;;38.80
20733;BMP180;10527;52.124;5.196;2023-06-14T12:09:00;101678.00;;;38.80
20733;BMP180;10527;52.124;5.196;2023-06-14T12:11:34;101664.00;;;38.80
20733;BMP180;10527;52.124;5.196;2023-06-14T12:14:07;101670.00;;;38.80
20733;BMP180;10527;52.124;5.196;2023-06-14T12:16:37;101668.00;;;38.80
20733;BMP180;10527;52.124;5.196;2023-06-14T12:19:16;101672.00;;;38.90
20733;BMP180;10527;52.124;5.196;2023-06-14T12:21:47;101678.00;;;38.80
20733;BMP180;10527;52.124;5.196;2023-06-14T12:24:16;101669.00;;;38.90
20733;BMP180;10527;52.124;5.196;2023-06-14T12:26:43;101675.00;;;38.90
20733;BMP180;10527;52.124;5.196;2023-06-14T12:29:10;101679.00;;;39.00
20733;BMP180;10527;52.124;5.196;2023-06-14T12:31:40;101667.00;;;39.00
20733;BMP180;10527;52.124;5.196;2023-06-14T12:34:07;101663.00;;;39.10
20733;BMP180;10527;52.124;5.196;2023-06-14T12:36:35;101663.00;;;39.20
20733;BMP180;10527;52.124;5.196;2023-06-14T12:39:07;101667.00;;;39.20
20733;BMP180;10527;52.124;5.196;2023-06-14T12:41:35;101660.00;;;39.30
20733;BMP180;10527;52.124;5.196;2023-06-14T12:44:04;101668.00;;;39.30
20733;BMP180;10527;52.124;5.196;2023-06-14T12:46:31;101668.00;;;39.40
20733;BMP180;10527;52.124;5.196;2023-06-14T12:48:59;101671.00;;;39.40
20733;BMP180;10527;52.124;5.196;2023-06-14T12:51:26;101671.00;;;39.40
20733;BMP180;10527;52.124;5.196;2023-06-14T12:53:53;101680.00;;;39.40
20733;BMP180;10527;52.124;5.196;2023-06-14T12:56:20;101660.00;;;39.40
20733;BMP180;10527;52.124;5.196;2023-06-14T12:58:50;101668.00;;;39.40
20733;BMP180;10527;52.124;5.196;2023-06-14T13:01:19;101670.00;;;39.40
20733;BMP180;10527;52.124;5.196;2023-06-14T13:03:49;101677.00;;;39.50
20733;BMP180;10527;52.124;5.196;2023-06-14T13:06:18;101671.00;;;39.40
20733;BMP180;10527;52.124;5.196;2023-06-14T13:08:45;101674.00;;;39.50
20733;BMP180;10527;52.124;5.196;2023-06-14T13:11:12;101681.00;;;39.50
20733;BMP180;10527;52.124;5.196;2023-06-14T13:13:41;101673.00;;;39.50
20733;BMP180;10527;52.124;5.196;2023-06-14T13:16:08;101673.00;;;39.50
20733;BMP180;10527;52.124;5.196;2023-06-14T13:18:35;101674.00;;;39.60
20733;BMP180;10527;52.124;5.196;2023-06-14T13:21:02;101672.00;;;39.60
20733;BMP180;10527;52.124;5.196;2023-06-14T13:23:29;101678.00;;;39.60
20733;BMP180;10527;52.124;5.196;2023-06-14T13:25:56;101668.00;;;39.70
20733;BMP180;10527;52.124;5.196;2023-06-14T13:28:23;101667.00;;;39.70
20733;BMP180;10527;52.124;5.196;2023-06-14T13:30:49;101671.00;;;39.80
20733;BMP180;10527;52.124;5.196;2023-06-14T13:33:16;101670.00;;;39.80
20733;BMP180;10527;52.124;5.196;2023-06-14T13:35:43;101667.00;;;39.90
20733;BMP180;10527;52.124;5.196;2023-06-14T13:38:13;101677.00;;;39.90
20733;BMP180;10527;52.124;5.196;2023-06-14T13:40:43;101679.00;;;39.90
20733;BMP180;10527;52.124;5.196;2023-06-14T13:43:13;101680.00;;;40.00
20733;BMP180;10527;52.124;5.196;2023-06-14T13:45:43;101679.00;;;40.00
20733;BMP180;10527;52.124;5.196;2023-06-14T13:48:10;101682.00;;;40.10
20733;BMP180;10527;52.124;5.196;2023-06-14T13:50:39;101672.00;;;40.10
20733;BMP180;10527;52.124;5.196;2023-06-14T13:53:06;101669.00;;;40.20
20733;BMP180;10527;52.124;5.196;2023-06-14T13:55:33;101667.00;;;40.20
20733;BMP180;10527;52.124;5.196;2023-06-14T13:58:00;101682.00;;;40.20
20733;BMP180;10527;52.124;5.196;2023-06-14T14:00:32;101683.00;;;40.20
20733;BMP180;10527;52.124;5.196;2023-06-14T14:03:00;101672.00;;;40.20
20733;BMP180;10527;52.124;5.196;2023-06-14T14:05:27;101675.00;;;40.20
20733;BMP180;10527;52.124;5.196;2023-06-14T14:07:56;101670.00;;;40.30
20733;BMP180;10527;52.124;5.196;2023-06-14T14:10:25;101665.00;;;40.30
20733;BMP180;10527;52.124;5.196;2023-06-14T14:12:52;101670.00;;;40.30
20733;BMP180;10527;52.124;5.196;2023-06-14T14:15:19;101670.00;;;40.30